createdAt,value
2018-02-16T00:00:04.673Z,0.00
2018-02-16T00:01:04.592Z,0.00
2018-02-16T00:02:04.512Z,0.00
2018-02-16T00:03:04.431Z,0.00
2018-02-16T00:04:04.350Z,0.00
2018-02-16T00:05:04.267Z,0.00
2018-02-16T00:06:04.187Z,0.00
2018-02-16T00:07:04.107Z,0.00
2018-02-16T00:08:04.026Z,0.00
2018-02-16T00:09:03.944Z,0.00
2018-02-16T00:10:03.863Z,0.00
2018-02-16T00:11:03.782Z,0.00
2018-02-16T00:12:03.701Z,0.00
2018-02-16T00:13:03.620Z,0.00
2018-02-16T00:14:03.538Z,0.00
2018-02-16T00:15:03.458Z,0.00
2018-02-16T00:16:03.377Z,0.00
2018-02-16T00:17:03.294Z,0.00
2018-02-16T00:18:03.214Z,0.00
2018-02-16T00:19:03.134Z,0.00
2018-02-16T00:20:03.052Z,0.00
2018-02-16T00:21:02.973Z,0.00
2018-02-16T00:22:02.893Z,0.00
2018-02-16T00:23:02.808Z,0.00
2018-02-16T00:24:02.728Z,0.00
2018-02-16T00:25:02.647Z,0.00
2018-02-16T00:26:02.565Z,0.00
2018-02-16T00:27:02.485Z,0.00
2018-02-16T00:28:02.404Z,0.00
2018-02-16T00:29:02.322Z,0.00
2018-02-16T00:30:02.242Z,0.00
2018-02-16T00:31:02.161Z,0.00
2018-02-16T00:32:02.080Z,0.00
2018-02-16T00:33:01.998Z,0.00
2018-02-16T00:34:01.917Z,0.00
2018-02-16T00:35:01.835Z,0.00
2018-02-16T00:36:01.755Z,0.00
2018-02-16T00:37:01.672Z,0.00
2018-02-16T00:38:01.592Z,0.00
2018-02-16T00:39:01.512Z,0.00
2018-02-16T00:40:01.431Z,0.00
2018-02-16T00:41:01.348Z,0.00
2018-02-16T00:42:01.268Z,0.00
2018-02-16T00:43:01.195Z,0.00
2018-02-16T00:44:01.105Z,0.00
2018-02-16T00:45:01.024Z,0.00
2018-02-16T00:46:00.942Z,0.00
2018-02-16T00:47:00.861Z,0.00
2018-02-16T00:48:00.781Z,0.00
2018-02-16T00:49:00.699Z,0.00
2018-02-16T00:50:00.617Z,0.00
2018-02-16T00:51:00.537Z,0.00
2018-02-16T00:52:00.455Z,0.00
2018-02-16T00:53:00.374Z,0.00
2018-02-16T00:54:00.293Z,0.00
2018-02-16T00:55:00.212Z,0.00
2018-02-16T00:56:00.132Z,0.00
2018-02-16T00:57:00.049Z,0.00
2018-02-16T00:57:59.968Z,0.00
2018-02-16T00:58:59.886Z,0.00
2018-02-16T00:59:59.806Z,0.00
2018-02-16T01:00:59.724Z,0.00
2018-02-16T01:01:59.643Z,0.00
2018-02-16T01:02:59.562Z,0.00
2018-02-16T01:03:59.481Z,0.00
2018-02-16T01:04:59.400Z,0.00
2018-02-16T01:05:59.320Z,0.00
2018-02-16T01:06:59.238Z,0.00
2018-02-16T01:07:59.158Z,0.00
2018-02-16T01:08:59.076Z,0.00
2018-02-16T01:09:59.001Z,0.00
2018-02-16T01:10:58.914Z,0.00
2018-02-16T01:11:58.833Z,0.00
2018-02-16T01:12:58.752Z,0.00
2018-02-16T01:13:58.671Z,0.00
2018-02-16T01:14:58.590Z,0.00
2018-02-16T01:15:58.508Z,0.00
2018-02-16T01:16:58.428Z,0.00
2018-02-16T01:17:58.348Z,0.00
2018-02-16T01:18:58.266Z,0.00
2018-02-16T01:19:58.185Z,0.00
2018-02-16T01:20:58.105Z,0.00
2018-02-16T01:21:58.022Z,0.00
2018-02-16T01:22:57.942Z,0.00
2018-02-16T01:23:57.860Z,0.00
2018-02-16T01:24:57.779Z,0.00
2018-02-16T01:25:57.699Z,0.00
2018-02-16T01:26:57.616Z,0.00
2018-02-16T01:27:57.538Z,0.00
2018-02-16T01:28:57.455Z,0.00
2018-02-16T01:29:57.374Z,0.00
2018-02-16T01:30:57.293Z,0.00
2018-02-16T01:31:57.213Z,0.00
2018-02-16T01:32:57.130Z,0.00
2018-02-16T01:33:57.049Z,0.00
2018-02-16T01:34:56.969Z,0.00
2018-02-16T01:35:56.889Z,0.00
2018-02-16T01:36:56.805Z,0.00
2018-02-16T01:37:56.725Z,0.00
2018-02-16T01:38:56.644Z,0.00
2018-02-16T01:39:56.564Z,0.00
2018-02-16T01:40:56.482Z,0.00
2018-02-16T01:41:56.400Z,0.00
2018-02-16T01:42:56.319Z,0.00
2018-02-16T01:43:56.239Z,0.00
2018-02-16T01:44:56.158Z,0.00
2018-02-16T01:45:56.077Z,0.00
2018-02-16T01:46:55.996Z,0.00
2018-02-16T01:47:55.915Z,0.00
2018-02-16T01:48:55.833Z,0.00
2018-02-16T01:49:55.752Z,0.00
2018-02-16T01:50:55.672Z,0.00
2018-02-16T01:51:55.591Z,0.00
2018-02-16T01:52:55.509Z,0.00
2018-02-16T01:53:55.427Z,0.00
2018-02-16T01:54:55.350Z,0.00
2018-02-16T01:55:55.269Z,0.00
2018-02-16T01:56:55.186Z,0.00
2018-02-16T01:57:55.105Z,0.00
2018-02-16T01:58:55.025Z,0.00
2018-02-16T01:59:54.944Z,0.00
2018-02-16T02:00:54.862Z,0.00
2018-02-16T02:01:54.781Z,0.00
2018-02-16T02:02:54.701Z,0.00
2018-02-16T02:03:54.620Z,0.00
2018-02-16T02:04:54.544Z,0.00
2018-02-16T02:05:54.458Z,0.00
2018-02-16T02:06:54.377Z,0.00
2018-02-16T02:07:54.296Z,0.00
2018-02-16T02:08:54.214Z,0.00
2018-02-16T02:09:54.134Z,0.00
2018-02-16T02:10:54.053Z,0.00
2018-02-16T02:11:53.973Z,0.00
2018-02-16T02:12:53.891Z,0.00
2018-02-16T02:13:53.810Z,0.00
2018-02-16T02:14:53.730Z,0.00
2018-02-16T02:15:53.650Z,0.00
2018-02-16T02:16:53.568Z,0.00
2018-02-16T02:17:53.488Z,0.00
2018-02-16T02:18:53.406Z,0.00
2018-02-16T02:19:53.325Z,0.00
2018-02-16T02:20:53.244Z,0.00
2018-02-16T02:21:53.164Z,0.00
2018-02-16T02:22:53.086Z,0.00
2018-02-16T02:23:53.002Z,0.00
2018-02-16T02:24:52.921Z,0.00
2018-02-16T02:25:52.840Z,0.00
2018-02-16T02:26:52.759Z,0.00
2018-02-16T02:27:52.677Z,0.00
2018-02-16T02:28:52.596Z,0.00
2018-02-16T02:29:52.516Z,0.00
2018-02-16T02:30:52.435Z,0.00
2018-02-16T02:31:52.355Z,0.00
2018-02-16T02:32:52.272Z,0.00
2018-02-16T02:33:52.192Z,0.00
2018-02-16T02:34:52.110Z,0.00
2018-02-16T02:35:52.031Z,0.00
2018-02-16T02:36:51.947Z,0.00
2018-02-16T02:37:51.872Z,0.00
2018-02-16T02:38:51.786Z,0.00
2018-02-16T02:39:51.706Z,0.00
2018-02-16T02:40:51.624Z,0.00
2018-02-16T02:41:51.545Z,0.00
2018-02-16T02:42:51.467Z,0.00
2018-02-16T02:43:51.382Z,0.00
2018-02-16T02:44:52.200Z,0.00
2018-02-16T02:45:51.220Z,0.00
2018-02-16T02:46:51.139Z,0.00
2018-02-16T02:47:51.057Z,0.00
2018-02-16T02:48:50.977Z,0.00
2018-02-16T02:49:50.896Z,0.00
2018-02-16T02:50:50.814Z,0.00
2018-02-16T02:51:50.735Z,0.00
2018-02-16T02:52:50.653Z,0.00
2018-02-16T02:53:50.572Z,0.00
2018-02-16T02:54:50.491Z,0.00
2018-02-16T02:55:50.411Z,0.00
2018-02-16T02:56:50.329Z,0.00
2018-02-16T02:57:50.248Z,0.00
2018-02-16T02:58:50.167Z,0.00
2018-02-16T02:59:50.093Z,0.00
2018-02-16T03:00:50.007Z,0.00
2018-02-16T03:01:49.924Z,0.00
2018-02-16T03:02:49.845Z,0.00
2018-02-16T03:03:49.763Z,0.00
2018-02-16T03:04:49.681Z,0.00
2018-02-16T03:05:49.600Z,0.00
2018-02-16T03:06:49.523Z,0.00
2018-02-16T03:07:49.439Z,0.00
2018-02-16T03:08:49.358Z,0.00
2018-02-16T03:09:49.277Z,0.00
2018-02-16T03:10:49.196Z,0.00
2018-02-16T03:11:49.115Z,0.00
2018-02-16T03:12:49.034Z,0.00
2018-02-16T03:13:48.952Z,0.00
2018-02-16T03:14:48.873Z,0.00
2018-02-16T03:15:48.791Z,0.00
2018-02-16T03:16:48.710Z,0.00
2018-02-16T03:17:48.629Z,0.00
2018-02-16T03:18:48.548Z,0.00
2018-02-16T03:19:48.467Z,0.00
2018-02-16T03:20:48.385Z,0.00
2018-02-16T03:21:48.304Z,0.00
2018-02-16T03:22:48.224Z,0.00
2018-02-16T03:23:48.142Z,0.00
2018-02-16T03:24:48.063Z,0.00
2018-02-16T03:25:47.979Z,0.00
2018-02-16T03:26:47.899Z,0.00
2018-02-16T03:27:47.817Z,0.00
2018-02-16T03:28:47.736Z,0.00
2018-02-16T03:29:47.656Z,0.00
2018-02-16T03:30:47.577Z,0.00
2018-02-16T03:31:47.492Z,0.00
2018-02-16T03:32:47.411Z,0.00
2018-02-16T03:33:47.330Z,0.00
2018-02-16T03:34:47.249Z,0.00
2018-02-16T03:35:47.168Z,0.00
2018-02-16T03:36:47.088Z,0.00
2018-02-16T03:37:47.006Z,0.00
2018-02-16T03:38:46.924Z,0.00
2018-02-16T03:39:46.844Z,0.00
2018-02-16T03:40:46.761Z,0.00
2018-02-16T03:41:46.680Z,0.00
2018-02-16T03:42:46.600Z,0.00
2018-02-16T03:43:46.517Z,0.00
2018-02-16T03:44:46.437Z,0.00
2018-02-16T03:45:46.355Z,0.00
2018-02-16T03:46:46.274Z,0.00
2018-02-16T03:47:46.192Z,0.00
2018-02-16T03:48:46.112Z,0.00
2018-02-16T03:49:46.031Z,0.00
2018-02-16T03:50:45.952Z,0.00
2018-02-16T03:51:45.868Z,0.00
2018-02-16T03:52:45.786Z,0.00
2018-02-16T03:53:45.705Z,0.00
2018-02-16T03:54:45.624Z,0.00
2018-02-16T03:55:45.543Z,0.00
2018-02-16T03:56:45.460Z,0.00
2018-02-16T03:57:45.380Z,0.00
2018-02-16T03:58:45.301Z,0.00
2018-02-16T03:59:45.217Z,0.00
2018-02-16T04:00:45.136Z,0.00
2018-02-16T04:01:45.053Z,0.00
2018-02-16T04:02:44.974Z,0.00
2018-02-16T04:03:44.892Z,0.00
2018-02-16T04:04:44.810Z,0.00
2018-02-16T04:05:44.729Z,0.00
2018-02-16T04:06:44.648Z,0.00
2018-02-16T04:07:44.566Z,0.00
2018-02-16T04:08:44.486Z,0.00
2018-02-16T04:09:44.404Z,0.00
2018-02-16T04:10:44.322Z,0.00
2018-02-16T04:11:44.241Z,0.00
2018-02-16T04:12:44.159Z,0.00
2018-02-16T04:13:44.079Z,0.00
2018-02-16T04:14:43.997Z,0.00
2018-02-16T04:15:43.915Z,0.00
2018-02-16T04:16:43.837Z,0.00
2018-02-16T04:17:43.752Z,0.00
2018-02-16T04:18:43.672Z,0.00
2018-02-16T04:19:43.590Z,0.00
2018-02-16T04:20:43.511Z,0.00
2018-02-16T04:21:43.428Z,0.00
2018-02-16T04:22:43.346Z,0.00
2018-02-16T04:23:43.265Z,0.00
2018-02-16T04:24:43.183Z,0.00
2018-02-16T04:25:43.102Z,0.00
2018-02-16T04:26:43.021Z,0.00
2018-02-16T04:27:42.938Z,0.00
2018-02-16T04:28:42.857Z,0.00
2018-02-16T04:29:42.776Z,0.00
2018-02-16T04:30:42.695Z,0.00
2018-02-16T04:31:42.616Z,0.00
2018-02-16T04:32:42.532Z,0.00
2018-02-16T04:33:42.451Z,0.00
2018-02-16T04:34:42.372Z,0.00
2018-02-16T04:35:42.288Z,0.00
2018-02-16T04:36:42.207Z,0.00
2018-02-16T04:37:42.125Z,0.00
2018-02-16T04:38:42.044Z,0.00
2018-02-16T04:39:41.963Z,0.00
2018-02-16T04:40:41.881Z,0.00
2018-02-16T04:41:41.799Z,0.00
2018-02-16T04:42:41.718Z,0.00
2018-02-16T04:43:41.637Z,0.00
2018-02-16T04:44:41.555Z,0.00
2018-02-16T04:45:41.474Z,0.00
2018-02-16T04:46:41.392Z,0.00
2018-02-16T04:47:41.311Z,0.00
2018-02-16T04:48:41.231Z,0.00
2018-02-16T04:49:41.147Z,0.00
2018-02-16T04:50:41.066Z,0.00
2018-02-16T04:51:40.984Z,0.00
2018-02-16T04:52:40.902Z,0.00
2018-02-16T04:53:40.823Z,0.00
2018-02-16T04:54:40.740Z,0.00
2018-02-16T04:55:40.657Z,0.00
2018-02-16T04:56:40.576Z,0.00
2018-02-16T04:57:40.494Z,0.00
2018-02-16T04:58:40.413Z,0.00
2018-02-16T04:59:40.332Z,0.00
2018-02-16T05:00:40.248Z,0.00
2018-02-16T05:01:40.168Z,0.00
2018-02-16T05:02:40.086Z,0.00
2018-02-16T05:03:40.005Z,0.00
2018-02-16T05:04:39.922Z,0.00
2018-02-16T05:05:39.840Z,0.00
2018-02-16T05:06:39.759Z,0.00
2018-02-16T05:07:39.678Z,0.00
2018-02-16T05:08:39.595Z,0.00
2018-02-16T05:09:39.513Z,0.00
2018-02-16T05:10:39.432Z,0.00
2018-02-16T05:11:39.350Z,0.00
2018-02-16T05:12:39.270Z,0.00
2018-02-16T05:13:39.186Z,0.00
2018-02-16T05:14:39.103Z,0.00
2018-02-16T05:15:39.022Z,0.00
2018-02-16T05:16:38.939Z,0.00
2018-02-16T05:17:38.858Z,0.00
2018-02-16T05:18:38.774Z,0.00
2018-02-16T05:19:38.692Z,0.00
2018-02-16T05:20:38.610Z,0.00
2018-02-16T05:21:38.528Z,0.00
2018-02-16T05:22:38.446Z,0.00
2018-02-16T05:23:38.363Z,0.00
2018-02-16T05:24:38.281Z,0.00
2018-02-16T05:25:38.198Z,0.00
2018-02-16T05:26:38.117Z,0.00
2018-02-16T05:27:38.034Z,0.00
2018-02-16T05:28:37.950Z,0.00
2018-02-16T05:29:37.868Z,0.00
2018-02-16T05:30:37.785Z,0.00
2018-02-16T05:31:37.704Z,0.00
2018-02-16T05:32:37.620Z,0.00
2018-02-16T05:33:37.539Z,0.00
2018-02-16T05:34:37.456Z,0.00
2018-02-16T05:35:37.374Z,0.00
2018-02-16T05:36:37.290Z,0.00
2018-02-16T05:37:37.207Z,0.00
2018-02-16T05:38:37.129Z,0.00
2018-02-16T05:39:37.045Z,0.00
2018-02-16T05:40:36.959Z,0.00
2018-02-16T05:41:36.878Z,0.00
2018-02-16T05:42:36.795Z,0.00
2018-02-16T05:43:36.713Z,0.00
2018-02-16T05:44:36.629Z,0.00
2018-02-16T05:45:36.547Z,0.00
2018-02-16T05:46:36.464Z,0.00
2018-02-16T05:47:36.383Z,0.00
2018-02-16T05:48:36.299Z,0.00
2018-02-16T05:49:36.216Z,0.00
2018-02-16T05:50:36.134Z,0.00
2018-02-16T05:51:36.052Z,0.00
2018-02-16T05:52:35.967Z,0.00
2018-02-16T05:53:35.886Z,0.00
2018-02-16T05:54:35.805Z,0.00
2018-02-16T05:55:35.721Z,0.00
2018-02-16T05:56:35.643Z,0.00
2018-02-16T05:57:35.557Z,0.00
2018-02-16T05:58:35.474Z,0.00
2018-02-16T05:59:35.391Z,0.00
2018-02-16T06:00:35.308Z,0.00
2018-02-16T06:01:35.226Z,0.00
2018-02-16T06:02:35.143Z,0.00
2018-02-16T06:03:35.061Z,0.00
2018-02-16T06:04:34.979Z,0.00
2018-02-16T06:05:34.896Z,4.00
2018-02-16T06:06:34.813Z,4.00
2018-02-16T06:07:34.733Z,4.00
2018-02-16T06:08:34.648Z,4.00
2018-02-16T06:09:34.565Z,4.00
2018-02-16T06:10:34.485Z,4.00
2018-02-16T06:11:34.401Z,8.00
2018-02-16T06:12:34.317Z,4.00
2018-02-16T06:13:34.235Z,4.00
2018-02-16T06:14:34.153Z,8.00
2018-02-16T06:15:34.070Z,8.00
2018-02-16T06:16:33.987Z,12.00
2018-02-16T06:17:33.905Z,12.00
2018-02-16T06:18:33.822Z,16.00
2018-02-16T06:19:33.740Z,20.00
2018-02-16T06:20:33.657Z,24.00
2018-02-16T06:21:33.575Z,28.00
2018-02-16T06:22:33.492Z,28.00
2018-02-16T06:23:33.410Z,32.00
2018-02-16T06:24:33.327Z,40.00
2018-02-16T06:25:33.244Z,44.00
2018-02-16T06:26:33.161Z,48.00
2018-02-16T06:27:33.080Z,56.00
2018-02-16T06:28:32.999Z,64.00
2018-02-16T06:29:32.914Z,76.00
2018-02-16T06:30:32.831Z,88.00
2018-02-16T06:31:32.749Z,96.00
2018-02-16T06:32:32.665Z,104.00
2018-02-16T06:33:32.583Z,112.00
2018-02-16T06:34:32.501Z,124.00
2018-02-16T06:35:32.418Z,140.00
2018-02-16T06:36:32.335Z,152.00
2018-02-16T06:37:32.253Z,164.00
2018-02-16T06:38:32.170Z,176.00
2018-02-16T06:39:32.088Z,196.00
2018-02-16T06:40:32.004Z,208.00
2018-02-16T06:41:31.922Z,220.00
2018-02-16T06:42:31.839Z,236.00
2018-02-16T06:43:31.756Z,248.00
2018-02-16T06:44:31.672Z,268.00
2018-02-16T06:45:31.623Z,284.00
2018-02-16T06:46:31.508Z,296.00
2018-02-16T06:47:31.424Z,316.00
2018-02-16T06:48:31.342Z,332.00
2018-02-16T06:49:31.258Z,348.00
2018-02-16T06:50:31.178Z,364.00
2018-02-16T06:51:31.095Z,384.00
2018-02-16T06:52:31.009Z,408.00
2018-02-16T06:53:30.928Z,432.00
2018-02-16T06:54:30.850Z,448.00
2018-02-16T06:55:30.762Z,464.00
2018-02-16T06:56:30.678Z,472.00
2018-02-16T06:57:30.595Z,488.00
2018-02-16T06:58:30.512Z,512.00
2018-02-16T06:59:30.428Z,532.00
2018-02-16T07:00:30.346Z,556.00
2018-02-16T07:01:30.263Z,596.00
2018-02-16T07:02:30.181Z,620.00
2018-02-16T07:03:30.098Z,636.00
2018-02-16T07:04:30.015Z,640.00
2018-02-16T07:05:29.932Z,656.00
2018-02-16T07:06:29.850Z,692.00
2018-02-16T07:07:29.807Z,712.00
2018-02-16T07:08:29.685Z,724.00
2018-02-16T07:09:29.600Z,760.00
2018-02-16T07:10:29.518Z,820.00
2018-02-16T07:11:29.435Z,892.00
2018-02-16T07:12:29.352Z,848.00
2018-02-16T07:13:29.269Z,840.00
2018-02-16T07:14:29.186Z,864.00
2018-02-16T07:15:29.104Z,864.00
2018-02-16T07:16:29.020Z,924.00
2018-02-16T07:17:28.937Z,968.00
2018-02-16T07:18:28.855Z,920.00
2018-02-16T07:19:28.772Z,1000.00
2018-02-16T07:20:28.689Z,1092.00
2018-02-16T07:21:28.607Z,1096.00
2018-02-16T07:22:28.524Z,1060.00
2018-02-16T07:23:28.443Z,1080.00
2018-02-16T07:24:28.358Z,1116.00
2018-02-16T07:25:28.277Z,1084.00
2018-02-16T07:26:28.194Z,1028.00
2018-02-16T07:27:28.112Z,1024.00
2018-02-16T07:28:28.029Z,1124.00
2018-02-16T07:29:27.949Z,1156.00
2018-02-16T07:30:27.863Z,1152.00
2018-02-16T07:31:27.782Z,1156.00
2018-02-16T07:32:27.698Z,1232.00
2018-02-16T07:33:27.616Z,1224.00
2018-02-16T07:34:27.534Z,1244.00
2018-02-16T07:35:27.452Z,1248.00
2018-02-16T07:36:27.369Z,1364.00
2018-02-16T07:37:27.287Z,1384.00
2018-02-16T07:38:27.208Z,1432.00
2018-02-16T07:39:27.123Z,1528.00
2018-02-16T07:40:27.041Z,1632.00
2018-02-16T07:41:26.958Z,1696.00
2018-02-16T07:42:26.876Z,1760.00
2018-02-16T07:43:26.794Z,1884.00
2018-02-16T07:44:26.712Z,1900.00
2018-02-16T07:45:26.630Z,1944.00
2018-02-16T07:46:26.547Z,1920.00
2018-02-16T07:47:26.465Z,1976.00
2018-02-16T07:48:26.389Z,1940.00
2018-02-16T07:49:26.302Z,1792.00
2018-02-16T07:50:26.220Z,1836.00
2018-02-16T07:51:26.137Z,2044.00
2018-02-16T07:52:26.056Z,2144.00
2018-02-16T07:53:25.974Z,2160.00
2018-02-16T07:54:25.893Z,2196.00
2018-02-16T07:55:25.812Z,2344.00
2018-02-16T07:56:25.728Z,2324.00
2018-02-16T07:57:25.651Z,2276.00
2018-02-16T07:58:25.565Z,2348.00
2018-02-16T07:59:25.485Z,2392.00
2018-02-16T08:00:25.487Z,2408.00
2018-02-16T08:01:25.321Z,2548.00
2018-02-16T08:02:25.240Z,2584.00
2018-02-16T08:03:25.158Z,2440.00
2018-02-16T08:04:25.077Z,2388.00
2018-02-16T08:05:24.995Z,2320.00
2018-02-16T08:06:24.914Z,2292.00
2018-02-16T08:07:24.833Z,2232.00
2018-02-16T08:08:24.756Z,2272.00
2018-02-16T08:09:24.672Z,2376.00
2018-02-16T08:10:24.589Z,2384.00
2018-02-16T08:11:24.508Z,2328.00
2018-02-16T08:12:24.426Z,2532.00
2018-02-16T08:13:24.345Z,2552.00
2018-02-16T08:14:24.263Z,2432.00
2018-02-16T08:15:24.183Z,2416.00
2018-02-16T08:16:24.101Z,2392.00
2018-02-16T08:17:24.023Z,2456.00
2018-02-16T08:18:23.939Z,2580.00
2018-02-16T08:19:23.857Z,2608.00
2018-02-16T08:20:23.777Z,2620.00
2018-02-16T08:21:23.695Z,2628.00
2018-02-16T08:22:23.614Z,2836.00
2018-02-16T08:23:23.535Z,3152.00
2018-02-16T08:24:23.453Z,3248.00
2018-02-16T08:25:23.373Z,3220.00
2018-02-16T08:26:23.292Z,3252.00
2018-02-16T08:27:23.211Z,3188.00
2018-02-16T08:28:23.130Z,3200.00
2018-02-16T08:29:23.048Z,3268.00
2018-02-16T08:30:22.969Z,3248.00
2018-02-16T08:31:22.901Z,3340.00
2018-02-16T08:32:22.806Z,3604.00
2018-02-16T08:33:22.725Z,3796.00
2018-02-16T08:34:22.656Z,3672.00
2018-02-16T08:35:22.564Z,3540.00
2018-02-16T08:36:22.483Z,3576.00
2018-02-16T08:37:22.403Z,3500.00
2018-02-16T08:38:22.322Z,3400.00
2018-02-16T08:39:22.242Z,3304.00
2018-02-16T08:40:22.161Z,3104.00
2018-02-16T08:41:22.080Z,2996.00
2018-02-16T08:42:22.001Z,3000.00
2018-02-16T08:43:21.919Z,2928.00
2018-02-16T08:44:21.838Z,3012.00
2018-02-16T08:45:21.759Z,3384.00
2018-02-16T08:46:21.679Z,3600.00
2018-02-16T08:47:21.599Z,3568.00
2018-02-16T08:48:21.517Z,3396.00
2018-02-16T08:49:21.436Z,3424.00
2018-02-16T08:50:21.356Z,3308.00
2018-02-16T08:51:21.276Z,3052.00
2018-02-16T08:52:21.195Z,3068.00
2018-02-16T08:53:21.114Z,3268.00
2018-02-16T08:54:21.035Z,3332.00
2018-02-16T08:55:20.954Z,3312.00
2018-02-16T08:56:20.871Z,3516.00
2018-02-16T08:57:20.797Z,4144.00
2018-02-16T08:58:20.712Z,5144.00
2018-02-16T08:59:20.635Z,6264.00
2018-02-16T09:00:20.551Z,6540.00
2018-02-16T09:01:20.470Z,6328.00
2018-02-16T09:02:20.390Z,5800.00
2018-02-16T09:03:20.311Z,5892.00
2018-02-16T09:04:20.229Z,6320.00
2018-02-16T09:05:20.149Z,6620.00
2018-02-16T09:06:20.068Z,7116.00
2018-02-16T09:07:19.989Z,6960.00
2018-02-16T09:08:19.908Z,6360.00
2018-02-16T09:09:19.828Z,5980.00
2018-02-16T09:10:19.748Z,5816.00
2018-02-16T09:11:19.670Z,5516.00
2018-02-16T09:12:19.589Z,5332.00
2018-02-16T09:13:19.508Z,5244.00
2018-02-16T09:14:19.429Z,5296.00
2018-02-16T09:15:19.349Z,5156.00
2018-02-16T09:16:19.268Z,4716.00
2018-02-16T09:17:19.189Z,4408.00
2018-02-16T09:18:19.109Z,4332.00
2018-02-16T09:19:19.031Z,4228.00
2018-02-16T09:20:18.950Z,4236.00
2018-02-16T09:21:18.870Z,4236.00
2018-02-16T09:22:18.790Z,4476.00
2018-02-16T09:23:18.711Z,4536.00
2018-02-16T09:24:18.631Z,4656.00
2018-02-16T09:25:18.552Z,5060.00
2018-02-16T09:26:18.472Z,5932.00
2018-02-16T09:27:18.393Z,6524.00
2018-02-16T09:28:18.312Z,6588.00
2018-02-16T09:29:18.233Z,5804.00
2018-02-16T09:30:18.156Z,4988.00
2018-02-16T09:31:18.074Z,5212.00
2018-02-16T09:32:17.994Z,5104.00
2018-02-16T09:33:17.915Z,4976.00
2018-02-16T09:34:17.835Z,5248.00
2018-02-16T09:35:17.757Z,4488.00
2018-02-16T09:36:17.676Z,3772.00
2018-02-16T09:37:17.597Z,3696.00
2018-02-16T09:38:17.517Z,3772.00
2018-02-16T09:39:17.438Z,3616.00
2018-02-16T09:40:17.357Z,3616.00
2018-02-16T09:41:17.278Z,3756.00
2018-02-16T09:42:17.198Z,4008.00
2018-02-16T09:43:17.118Z,4240.00
2018-02-16T09:44:17.038Z,4236.00
2018-02-16T09:45:16.959Z,4132.00
2018-02-16T09:46:16.879Z,4372.00
2018-02-16T09:47:16.799Z,4552.00
2018-02-16T09:48:16.719Z,4696.00
2018-02-16T09:49:16.640Z,4536.00
2018-02-16T09:50:16.560Z,4484.00
2018-02-16T09:51:16.480Z,4512.00
2018-02-16T09:52:16.400Z,4408.00
2018-02-16T09:53:16.320Z,4120.00
2018-02-16T09:54:16.241Z,4060.00
2018-02-16T09:55:16.162Z,4492.00
2018-02-16T09:56:16.082Z,4988.00
2018-02-16T09:57:16.002Z,5672.00
2018-02-16T09:58:15.922Z,6104.00
2018-02-16T09:59:15.843Z,6768.00
2018-02-16T10:00:15.762Z,6728.00
2018-02-16T10:01:15.682Z,7136.00
2018-02-16T10:02:15.604Z,8584.00
2018-02-16T10:03:15.524Z,8540.00
2018-02-16T10:04:15.444Z,6840.00
2018-02-16T10:05:15.364Z,5584.00
2018-02-16T10:06:15.284Z,4784.00
2018-02-16T10:07:15.226Z,5304.00
2018-02-16T10:08:15.126Z,6360.00
2018-02-16T10:09:15.045Z,8660.00
2018-02-16T10:10:14.966Z,9860.00
2018-02-16T10:11:14.889Z,8420.00
2018-02-16T10:12:14.807Z,8056.00
2018-02-16T10:13:14.728Z,7688.00
2018-02-16T10:14:14.649Z,7972.00
2018-02-16T10:15:14.570Z,9020.00
2018-02-16T10:16:14.491Z,9416.00
2018-02-16T10:17:14.412Z,10088.00
2018-02-16T10:18:14.334Z,10344.00
2018-02-16T10:19:14.255Z,10036.00
2018-02-16T10:20:14.176Z,8100.00
2018-02-16T10:21:14.097Z,6532.00
2018-02-16T10:22:14.023Z,5812.00
2018-02-16T10:23:13.940Z,5988.00
2018-02-16T10:24:13.861Z,6528.00
2018-02-16T10:25:13.783Z,6620.00
2018-02-16T10:26:13.706Z,4480.00
2018-02-16T10:27:13.626Z,3668.00
2018-02-16T10:28:13.547Z,3276.00
2018-02-16T10:29:13.468Z,3056.00
2018-02-16T10:30:13.390Z,3512.00
2018-02-16T10:31:13.311Z,4516.00
2018-02-16T10:32:13.232Z,5212.00
2018-02-16T10:33:13.153Z,6180.00
2018-02-16T10:34:13.116Z,7096.00
2018-02-16T10:35:12.995Z,7008.00
2018-02-16T10:36:12.917Z,6344.00
2018-02-16T10:37:12.836Z,5936.00
2018-02-16T10:38:12.758Z,6420.00
2018-02-16T10:39:12.679Z,7332.00
2018-02-16T10:40:12.598Z,7828.00
2018-02-16T10:41:12.522Z,8772.00
2018-02-16T10:42:12.442Z,14000.00
2018-02-16T10:43:12.362Z,14120.00
2018-02-16T10:44:12.282Z,16736.00
2018-02-16T10:45:12.204Z,6796.00
2018-02-16T10:46:12.126Z,6948.00
2018-02-16T10:47:12.048Z,5956.00
2018-02-16T10:48:11.969Z,4972.00
2018-02-16T10:49:11.891Z,5164.00
2018-02-16T10:50:11.812Z,4948.00
2018-02-16T10:51:11.734Z,6116.00
2018-02-16T10:52:11.657Z,4932.00
2018-02-16T10:53:11.577Z,4564.00
2018-02-16T10:54:11.500Z,4448.00
2018-02-16T10:55:11.422Z,4840.00
2018-02-16T10:56:11.342Z,7124.00
2018-02-16T10:57:11.264Z,16896.00
2018-02-16T10:58:11.186Z,18208.00
2018-02-16T10:59:11.108Z,18240.00
2018-02-16T11:00:11.029Z,24768.00
2018-02-16T11:01:10.951Z,27456.00
2018-02-16T11:02:10.875Z,21312.00
2018-02-16T11:03:10.795Z,7748.00
2018-02-16T11:04:10.718Z,8836.00
2018-02-16T11:05:10.640Z,8664.00
2018-02-16T11:06:10.564Z,8492.00
2018-02-16T11:07:10.487Z,9112.00
2018-02-16T11:08:10.409Z,9416.00
2018-02-16T11:09:10.332Z,16440.00
2018-02-16T11:10:10.256Z,10772.00
2018-02-16T11:11:10.180Z,10176.00
2018-02-16T11:12:10.102Z,8384.00
2018-02-16T11:13:10.026Z,8728.00
2018-02-16T11:14:09.949Z,12640.00
2018-02-16T11:15:09.874Z,14824.00
2018-02-16T11:16:09.797Z,15712.00
2018-02-16T11:17:09.720Z,15120.00
2018-02-16T11:18:09.645Z,15092.00
2018-02-16T11:19:09.568Z,15584.00
2018-02-16T11:20:09.491Z,15520.00
2018-02-16T11:21:09.417Z,10540.00
2018-02-16T11:22:09.340Z,14708.00
2018-02-16T11:23:09.269Z,16288.00
2018-02-16T11:24:09.191Z,15240.00
2018-02-16T11:25:09.116Z,12544.00
2018-02-16T11:26:09.042Z,12368.00
2018-02-16T11:27:08.968Z,13552.00
2018-02-16T11:28:08.893Z,14172.00
2018-02-16T11:29:08.819Z,13264.00
2018-02-16T11:30:08.746Z,11820.00
2018-02-16T11:31:08.674Z,12412.00
2018-02-16T11:32:08.598Z,13412.00
2018-02-16T11:33:08.526Z,18592.00
2018-02-16T11:34:08.485Z,27616.00
2018-02-16T11:35:08.382Z,32128.00
2018-02-16T11:36:08.306Z,36544.00
2018-02-16T11:37:08.234Z,33440.00
2018-02-16T11:38:08.163Z,28320.00
2018-02-16T11:39:08.090Z,35744.00
2018-02-16T11:40:08.017Z,43744.00
2018-02-16T11:41:07.945Z,45024.00
2018-02-16T11:42:07.874Z,44960.00
2018-02-16T11:43:07.803Z,46208.00
2018-02-16T11:44:07.732Z,46560.00
2018-02-16T11:45:07.660Z,46880.00
2018-02-16T11:46:07.590Z,47968.00
2018-02-16T11:47:07.520Z,44576.00
2018-02-16T11:48:07.480Z,20000.00
2018-02-16T11:49:07.378Z,52096.00
2018-02-16T11:50:07.309Z,37344.00
2018-02-16T11:51:07.239Z,7876.00
2018-02-16T11:52:07.169Z,6336.00
2018-02-16T11:53:07.098Z,4168.00
2018-02-16T11:54:07.027Z,3540.00
2018-02-16T11:55:06.956Z,3344.00
2018-02-16T11:56:06.885Z,3032.00
2018-02-16T11:57:06.813Z,2808.00
2018-02-16T11:58:06.742Z,2736.00
2018-02-16T11:59:06.676Z,2460.00
2018-02-16T12:00:06.598Z,2108.00
2018-02-16T12:01:06.526Z,1968.00
2018-02-16T12:02:06.453Z,1952.00
2018-02-16T12:03:06.382Z,1872.00
2018-02-16T12:04:06.306Z,1732.00
2018-02-16T12:05:06.233Z,1464.00
2018-02-16T12:06:06.159Z,1364.00
2018-02-16T12:07:06.085Z,1488.00
2018-02-16T12:08:06.016Z,1884.00
2018-02-16T12:09:05.935Z,2900.00
2018-02-16T12:10:05.860Z,4712.00
2018-02-16T12:11:05.786Z,3576.00
2018-02-16T12:12:05.709Z,2888.00
2018-02-16T12:13:05.634Z,3036.00
2018-02-16T12:14:05.558Z,3224.00
2018-02-16T12:15:05.482Z,4024.00
2018-02-16T12:16:05.406Z,3320.00
2018-02-16T12:17:05.331Z,3352.00
2018-02-16T12:18:05.253Z,3220.00
2018-02-16T12:19:05.178Z,3092.00
2018-02-16T12:20:05.099Z,3520.00
2018-02-16T12:21:05.023Z,4916.00
2018-02-16T12:22:04.949Z,4788.00
2018-02-16T12:23:04.869Z,58880.00
2018-02-16T12:24:04.792Z,5300.00
2018-02-16T12:25:04.715Z,7392.00
2018-02-16T12:26:04.638Z,3628.00
2018-02-16T12:27:04.561Z,3684.00
2018-02-16T12:28:04.484Z,3792.00
2018-02-16T12:29:04.407Z,3412.00
2018-02-16T12:30:04.332Z,3736.00
2018-02-16T12:31:04.254Z,4864.00
2018-02-16T12:32:04.177Z,7764.00
2018-02-16T12:33:04.098Z,30368.00
2018-02-16T12:34:04.022Z,30656.00
2018-02-16T12:35:03.947Z,29696.00
2018-02-16T12:36:03.868Z,26432.00
2018-02-16T12:37:03.793Z,27072.00
2018-02-16T12:38:03.717Z,26592.00
2018-02-16T12:39:03.642Z,20224.00